sensor_id;sensor_type;location;lat;lon;timestamp;temperature;humidity
22360;DHT22;11347;52.030;4.690;2022-12-29T00:02:21;15.60;60.40
22360;DHT22;11347;52.030;4.690;2022-12-29T00:04:49;15.60;60.50
22360;DHT22;11347;52.030;4.690;2022-12-29T00:07:15;15.60;60.50
22360;DHT22;11347;52.030;4.690;2022-12-29T00:09:40;15.60;60.50
22360;DHT22;11347;52.030;4.690;2022-12-29T00:12:06;15.60;60.50
22360;DHT22;11347;52.030;4.690;2022-12-29T00:14:32;15.60;60.50
22360;DHT22;11347;52.030;4.690;2022-12-29T00:17:16;15.60;60.50
22360;DHT22;11347;52.030;4.690;2022-12-29T00:19:41;15.60;60.50
22360;DHT22;11347;52.030;4.690;2022-12-29T00:22:26;15.60;60.50
22360;DHT22;11347;52.030;4.690;2022-12-29T00:25:11;15.60;60.60
22360;DHT22;11347;52.030;4.690;2022-12-29T00:27:56;15.60;60.60
22360;DHT22;11347;52.030;4.690;2022-12-29T00:30:40;15.60;60.60
22360;DHT22;11347;52.030;4.690;2022-12-29T00:33:32;15.60;61.10
22360;DHT22;11347;52.030;4.690;2022-12-29T00:36:20;15.60;60.70
22360;DHT22;11347;52.030;4.690;2022-12-29T00:38:50;15.60;60.70
22360;DHT22;11347;52.030;4.690;2022-12-29T00:41:35;15.60;60.80
22360;DHT22;11347;52.030;4.690;2022-12-29T00:44:19;15.60;60.70
22360;DHT22;11347;52.030;4.690;2022-12-29T00:46:45;15.60;60.70
22360;DHT22;11347;52.030;4.690;2022-12-29T00:49:13;15.60;60.70
22360;DHT22;11347;52.030;4.690;2022-12-29T00:52:17;15.60;60.70
22360;DHT22;11347;52.030;4.690;2022-12-29T00:54:45;15.60;60.70
22360;DHT22;11347;52.030;4.690;2022-12-29T00:57:11;15.60;60.80
22360;DHT22;11347;52.030;4.690;2022-12-29T00:59:41;15.80;61.00
22360;DHT22;11347;52.030;4.690;2022-12-29T01:02:09;15.80;60.70
22360;DHT22;11347;52.030;4.690;2022-12-29T01:04:35;15.80;60.70
22360;DHT22;11347;52.030;4.690;2022-12-29T01:07:00;15.80;60.80
22360;DHT22;11347;52.030;4.690;2022-12-29T01:09:26;15.80;61.00
22360;DHT22;11347;52.030;4.690;2022-12-29T01:12:11;15.80;61.10
22360;DHT22;11347;52.030;4.690;2022-12-29T01:14:38;15.80;61.30
22360;DHT22;11347;52.030;4.690;2022-12-29T01:17:04;15.80;61.40
22360;DHT22;11347;52.030;4.690;2022-12-29T01:19:30;15.90;61.50
22360;DHT22;11347;52.030;4.690;2022-12-29T01:21:58;15.90;61.60
22360;DHT22;11347;52.030;4.690;2022-12-29T01:24:24;15.90;61.80
22360;DHT22;11347;52.030;4.690;2022-12-29T01:26:51;15.90;62.30
22360;DHT22;11347;52.030;4.690;2022-12-29T01:29:17;15.90;61.80
22360;DHT22;11347;52.030;4.690;2022-12-29T01:31:43;15.90;61.90
22360;DHT22;11347;52.030;4.690;2022-12-29T01:34:08;15.90;61.90
22360;DHT22;11347;52.030;4.690;2022-12-29T01:36:34;15.90;62.00
22360;DHT22;11347;52.030;4.690;2022-12-29T01:38:59;15.80;62.00
22360;DHT22;11347;52.030;4.690;2022-12-29T01:41:25;15.90;62.00
22360;DHT22;11347;52.030;4.690;2022-12-29T01:43:56;15.90;62.10
22360;DHT22;11347;52.030;4.690;2022-12-29T01:49:10;15.80;62.00
22360;DHT22;11347;52.030;4.690;2022-12-29T01:52:02;15.80;62.00
22360;DHT22;11347;52.030;4.690;2022-12-29T01:54:48;15.80;62.00
22360;DHT22;11347;52.030;4.690;2022-12-29T01:57:20;15.80;62.00
22360;DHT22;11347;52.030;4.690;2022-12-29T02:00:01;15.80;62.10
22360;DHT22;11347;52.030;4.690;2022-12-29T02:02:29;15.80;62.10
22360;DHT22;11347;52.030;4.690;2022-12-29T02:04:56;15.80;62.10
22360;DHT22;11347;52.030;4.690;2022-12-29T02:07:24;15.80;62.20
22360;DHT22;11347;52.030;4.690;2022-12-29T02:09:53;15.80;62.20
22360;DHT22;11347;52.030;4.690;2022-12-29T02:12:20;15.80;62.30
22360;DHT22;11347;52.030;4.690;2022-12-29T02:14:48;15.80;62.30
22360;DHT22;11347;52.030;4.690;2022-12-29T02:23:06;15.80;62.20
22360;DHT22;11347;52.030;4.690;2022-12-29T02:26:01;15.80;62.10
22360;DHT22;11347;52.030;4.690;2022-12-29T02:31:31;15.80;62.20
22360;DHT22;11347;52.030;4.690;2022-12-29T02:37:22;15.80;62.20
22360;DHT22;11347;52.030;4.690;2022-12-29T02:40:08;15.80;62.20
22360;DHT22;11347;52.030;4.690;2022-12-29T02:50:33;15.80;62.30
22360;DHT22;11347;52.030;4.690;2022-12-29T02:53:09;15.80;62.20
22360;DHT22;11347;52.030;4.690;2022-12-29T02:55:36;15.80;62.70
22360;DHT22;11347;52.030;4.690;2022-12-29T02:58:22;15.80;62.10
22360;DHT22;11347;52.030;4.690;2022-12-29T03:11:37;15.80;62.00
22360;DHT22;11347;52.030;4.690;2022-12-29T03:15:02;15.80;62.00
22360;DHT22;11347;52.030;4.690;2022-12-29T03:18:10;15.80;62.00
22360;DHT22;11347;52.030;4.690;2022-12-29T03:20:44;15.80;62.00
22360;DHT22;11347;52.030;4.690;2022-12-29T03:23:16;15.80;62.00
22360;DHT22;11347;52.030;4.690;2022-12-29T03:25:47;15.80;62.10
22360;DHT22;11347;52.030;4.690;2022-12-29T03:28:20;15.80;62.50
22360;DHT22;11347;52.030;4.690;2022-12-29T03:30:47;15.80;62.10
22360;DHT22;11347;52.030;4.690;2022-12-29T03:33:25;15.80;62.10
22360;DHT22;11347;52.030;4.690;2022-12-29T03:35:58;15.80;62.00
22360;DHT22;11347;52.030;4.690;2022-12-29T03:38:44;15.80;62.00
22360;DHT22;11347;52.030;4.690;2022-12-29T03:41:17;15.80;61.90
22360;DHT22;11347;52.030;4.690;2022-12-29T03:43:45;15.70;61.80
22360;DHT22;11347;52.030;4.690;2022-12-29T03:46:11;15.80;61.90
22360;DHT22;11347;52.030;4.690;2022-12-29T03:48:39;15.80;61.90
22360;DHT22;11347;52.030;4.690;2022-12-29T03:51:05;15.80;61.90
22360;DHT22;11347;52.030;4.690;2022-12-29T03:53:30;15.80;62.00
22360;DHT22;11347;52.030;4.690;2022-12-29T03:55:56;15.80;62.00
22360;DHT22;11347;52.030;4.690;2022-12-29T03:58:22;15.80;61.90
22360;DHT22;11347;52.030;4.690;2022-12-29T04:00:48;15.70;61.90
22360;DHT22;11347;52.030;4.690;2022-12-29T04:03:13;15.80;62.00
22360;DHT22;11347;52.030;4.690;2022-12-29T04:05:39;15.80;62.00
22360;DHT22;11347;52.030;4.690;2022-12-29T04:08:05;15.80;62.00
22360;DHT22;11347;52.030;4.690;2022-12-29T04:10:30;15.80;61.90
22360;DHT22;11347;52.030;4.690;2022-12-29T04:12:56;15.80;62.00
22360;DHT22;11347;52.030;4.690;2022-12-29T04:15:21;15.80;62.00
22360;DHT22;11347;52.030;4.690;2022-12-29T04:17:49;15.80;62.00
22360;DHT22;11347;52.030;4.690;2022-12-29T04:20:15;15.70;62.00
22360;DHT22;11347;52.030;4.690;2022-12-29T04:23:01;15.80;62.20
22360;DHT22;11347;52.030;4.690;2022-12-29T04:25:27;15.80;62.00
22360;DHT22;11347;52.030;4.690;2022-12-29T04:27:52;15.80;62.10
22360;DHT22;11347;52.030;4.690;2022-12-29T04:30:18;15.80;62.10
22360;DHT22;11347;52.030;4.690;2022-12-29T04:32:43;15.80;62.00
22360;DHT22;11347;52.030;4.690;2022-12-29T04:35:09;15.80;62.10
22360;DHT22;11347;52.030;4.690;2022-12-29T04:37:34;15.70;62.00
22360;DHT22;11347;52.030;4.690;2022-12-29T04:40:00;15.80;62.10
22360;DHT22;11347;52.030;4.690;2022-12-29T04:42:25;15.70;62.10
22360;DHT22;11347;52.030;4.690;2022-12-29T04:44:51;15.70;62.00
22360;DHT22;11347;52.030;4.690;2022-12-29T04:47:16;15.80;62.00
22360;DHT22;11347;52.030;4.690;2022-12-29T04:49:42;15.80;62.10
22360;DHT22;11347;52.030;4.690;2022-12-29T04:52:08;15.80;62.20
22360;DHT22;11347;52.030;4.690;2022-12-29T04:54:33;15.80;62.10
22360;DHT22;11347;52.030;4.690;2022-12-29T04:56:59;15.80;62.10
22360;DHT22;11347;52.030;4.690;2022-12-29T04:59:25;15.80;62.10
22360;DHT22;11347;52.030;4.690;2022-12-29T05:01:54;15.80;62.10
22360;DHT22;11347;52.030;4.690;2022-12-29T05:04:19;15.80;62.10
22360;DHT22;11347;52.030;4.690;2022-12-29T05:06:45;15.80;62.10
22360;DHT22;11347;52.030;4.690;2022-12-29T05:09:10;15.70;61.90
22360;DHT22;11347;52.030;4.690;2022-12-29T05:11:36;15.80;62.00
22360;DHT22;11347;52.030;4.690;2022-12-29T05:14:01;15.80;61.90
22360;DHT22;11347;52.030;4.690;2022-12-29T05:16:27;15.80;61.90
22360;DHT22;11347;52.030;4.690;2022-12-29T05:18:52;15.80;61.80
22360;DHT22;11347;52.030;4.690;2022-12-29T05:21:21;15.70;61.60
22360;DHT22;11347;52.030;4.690;2022-12-29T05:23:46;15.80;61.80
22360;DHT22;11347;52.030;4.690;2022-12-29T05:26:12;15.70;61.80
22360;DHT22;11347;52.030;4.690;2022-12-29T05:28:37;15.70;62.00
22360;DHT22;11347;52.030;4.690;2022-12-29T05:31:03;15.70;62.00
22360;DHT22;11347;52.030;4.690;2022-12-29T05:33:28;15.70;62.20
22360;DHT22;11347;52.030;4.690;2022-12-29T05:35:54;15.70;62.30
22360;DHT22;11347;52.030;4.690;2022-12-29T05:38:19;15.70;62.40
22360;DHT22;11347;52.030;4.690;2022-12-29T05:40:45;15.70;62.30
22360;DHT22;11347;52.030;4.690;2022-12-29T05:43:11;15.70;62.30
22360;DHT22;11347;52.030;4.690;2022-12-29T05:45:36;15.70;62.30
22360;DHT22;11347;52.030;4.690;2022-12-29T05:48:02;15.70;62.20
22360;DHT22;11347;52.030;4.690;2022-12-29T05:50:28;15.70;62.30
22360;DHT22;11347;52.030;4.690;2022-12-29T05:52:54;15.70;62.30
22360;DHT22;11347;52.030;4.690;2022-12-29T05:55:19;15.70;62.20
22360;DHT22;11347;52.030;4.690;2022-12-29T05:57:45;15.70;62.20
22360;DHT22;11347;52.030;4.690;2022-12-29T06:00:11;15.70;62.20
22360;DHT22;11347;52.030;4.690;2022-12-29T06:02:36;15.70;62.20
22360;DHT22;11347;52.030;4.690;2022-12-29T06:05:02;15.70;62.10
22360;DHT22;11347;52.030;4.690;2022-12-29T06:07:28;15.70;62.00
22360;DHT22;11347;52.030;4.690;2022-12-29T06:09:53;15.70;62.00
22360;DHT22;11347;52.030;4.690;2022-12-29T06:12:19;15.70;62.10
22360;DHT22;11347;52.030;4.690;2022-12-29T06:14:44;15.70;62.10
22360;DHT22;11347;52.030;4.690;2022-12-29T06:17:10;15.70;62.10
22360;DHT22;11347;52.030;4.690;2022-12-29T06:19:35;15.70;62.10
22360;DHT22;11347;52.030;4.690;2022-12-29T06:22:01;15.70;62.10
22360;DHT22;11347;52.030;4.690;2022-12-29T06:24:27;15.70;62.10
22360;DHT22;11347;52.030;4.690;2022-12-29T06:26:53;15.70;62.10
22360;DHT22;11347;52.030;4.690;2022-12-29T06:29:18;15.70;62.10
22360;DHT22;11347;52.030;4.690;2022-12-29T06:31:46;15.70;62.10
22360;DHT22;11347;52.030;4.690;2022-12-29T06:34:14;15.70;62.10
22360;DHT22;11347;52.030;4.690;2022-12-29T06:36:40;15.70;62.20
22360;DHT22;11347;52.030;4.690;2022-12-29T06:39:06;15.70;62.30
22360;DHT22;11347;52.030;4.690;2022-12-29T06:41:31;15.70;62.30
22360;DHT22;11347;52.030;4.690;2022-12-29T06:43:57;15.60;62.20
22360;DHT22;11347;52.030;4.690;2022-12-29T06:46:23;15.70;62.20
22360;DHT22;11347;52.030;4.690;2022-12-29T06:48:48;15.70;62.10
22360;DHT22;11347;52.030;4.690;2022-12-29T06:51:14;15.70;62.00
22360;DHT22;11347;52.030;4.690;2022-12-29T06:53:40;15.70;62.10
22360;DHT22;11347;52.030;4.690;2022-12-29T06:56:06;15.70;62.00
22360;DHT22;11347;52.030;4.690;2022-12-29T06:58:31;15.70;62.00
22360;DHT22;11347;52.030;4.690;2022-12-29T07:00:57;15.60;61.90
22360;DHT22;11347;52.030;4.690;2022-12-29T07:03:23;15.60;61.80
22360;DHT22;11347;52.030;4.690;2022-12-29T07:05:48;15.60;61.90
22360;DHT22;11347;52.030;4.690;2022-12-29T07:08:14;15.60;61.90
22360;DHT22;11347;52.030;4.690;2022-12-29T07:10:39;15.60;62.30
22360;DHT22;11347;52.030;4.690;2022-12-29T07:13:08;15.60;61.80
22360;DHT22;11347;52.030;4.690;2022-12-29T07:15:35;15.60;61.90
22360;DHT22;11347;52.030;4.690;2022-12-29T07:18:01;15.60;61.90
22360;DHT22;11347;52.030;4.690;2022-12-29T07:20:26;15.60;61.90
22360;DHT22;11347;52.030;4.690;2022-12-29T07:22:52;15.60;61.90
22360;DHT22;11347;52.030;4.690;2022-12-29T07:25:18;15.60;61.90
22360;DHT22;11347;52.030;4.690;2022-12-29T07:27:43;15.60;61.80
22360;DHT22;11347;52.030;4.690;2022-12-29T07:30:09;15.60;61.80
22360;DHT22;11347;52.030;4.690;2022-12-29T07:32:35;15.60;61.90
22360;DHT22;11347;52.030;4.690;2022-12-29T07:35:01;15.60;62.00
22360;DHT22;11347;52.030;4.690;2022-12-29T07:37:27;15.50;61.90
22360;DHT22;11347;52.030;4.690;2022-12-29T07:39:52;15.60;61.90
22360;DHT22;11347;52.030;4.690;2022-12-29T07:42:18;15.60;61.80
22360;DHT22;11347;52.030;4.690;2022-12-29T07:44:44;15.50;61.70
22360;DHT22;11347;52.030;4.690;2022-12-29T07:47:09;15.60;61.90
22360;DHT22;11347;52.030;4.690;2022-12-29T07:49:35;15.50;61.70
22360;DHT22;11347;52.030;4.690;2022-12-29T07:52:00;15.50;61.60
22360;DHT22;11347;52.030;4.690;2022-12-29T07:54:26;15.50;61.60
22360;DHT22;11347;52.030;4.690;2022-12-29T07:56:51;15.50;61.60
22360;DHT22;11347;52.030;4.690;2022-12-29T07:59:17;15.50;61.60
22360;DHT22;11347;52.030;4.690;2022-12-29T08:01:43;15.50;61.60
22360;DHT22;11347;52.030;4.690;2022-12-29T08:04:08;15.50;61.60
22360;DHT22;11347;52.030;4.690;2022-12-29T08:06:34;15.50;61.60
22360;DHT22;11347;52.030;4.690;2022-12-29T08:08:59;15.50;61.60
22360;DHT22;11347;52.030;4.690;2022-12-29T08:11:26;15.50;61.50
22360;DHT22;11347;52.030;4.690;2022-12-29T08:13:52;15.50;61.60
22360;DHT22;11347;52.030;4.690;2022-12-29T08:16:17;15.50;61.50
22360;DHT22;11347;52.030;4.690;2022-12-29T08:18:43;15.50;61.40
22360;DHT22;11347;52.030;4.690;2022-12-29T08:21:10;15.50;61.40
22360;DHT22;11347;52.030;4.690;2022-12-29T08:23:35;15.50;61.40
22360;DHT22;11347;52.030;4.690;2022-12-29T08:26:04;15.50;61.40
22360;DHT22;11347;52.030;4.690;2022-12-29T08:28:33;15.50;61.40
22360;DHT22;11347;52.030;4.690;2022-12-29T08:31:01;15.50;61.30
22360;DHT22;11347;52.030;4.690;2022-12-29T08:33:27;15.50;61.30
22360;DHT22;11347;52.030;4.690;2022-12-29T08:35:58;15.50;61.30
22360;DHT22;11347;52.030;4.690;2022-12-29T08:38:23;15.50;61.30
22360;DHT22;11347;52.030;4.690;2022-12-29T08:40:51;15.50;61.60
22360;DHT22;11347;52.030;4.690;2022-12-29T08:43:17;15.50;61.60
22360;DHT22;11347;52.030;4.690;2022-12-29T08:45:42;15.50;61.60
22360;DHT22;11347;52.030;4.690;2022-12-29T08:48:08;15.50;61.50
22360;DHT22;11347;52.030;4.690;2022-12-29T08:50:36;15.60;61.70
22360;DHT22;11347;52.030;4.690;2022-12-29T08:53:05;15.50;61.80
22360;DHT22;11347;52.030;4.690;2022-12-29T08:55:30;15.60;61.80
22360;DHT22;11347;52.030;4.690;2022-12-29T08:57:56;15.60;61.80
22360;DHT22;11347;52.030;4.690;2022-12-29T09:00:22;15.60;61.80
22360;DHT22;11347;52.030;4.690;2022-12-29T09:02:53;15.60;61.40
22360;DHT22;11347;52.030;4.690;2022-12-29T09:05:19;15.60;61.10
22360;DHT22;11347;52.030;4.690;2022-12-29T09:07:44;15.60;60.90
22360;DHT22;11347;52.030;4.690;2022-12-29T09:10:10;15.60;60.70
22360;DHT22;11347;52.030;4.690;2022-12-29T09:12:36;15.60;60.70
22360;DHT22;11347;52.030;4.690;2022-12-29T09:15:01;15.60;60.50
22360;DHT22;11347;52.030;4.690;2022-12-29T09:17:27;15.50;60.30
22360;DHT22;11347;52.030;4.690;2022-12-29T09:20:16;15.60;60.30
22360;DHT22;11347;52.030;4.690;2022-12-29T09:22:43;15.60;60.10
22360;DHT22;11347;52.030;4.690;2022-12-29T09:25:10;15.50;60.10
22360;DHT22;11347;52.030;4.690;2022-12-29T09:27:36;15.60;60.50
22360;DHT22;11347;52.030;4.690;2022-12-29T09:30:04;15.50;60.00
22360;DHT22;11347;52.030;4.690;2022-12-29T09:32:31;15.50;60.00
22360;DHT22;11347;52.030;4.690;2022-12-29T09:34:56;15.50;60.00
22360;DHT22;11347;52.030;4.690;2022-12-29T09:37:22;15.50;60.00
22360;DHT22;11347;52.030;4.690;2022-12-29T09:39:47;15.50;60.00
22360;DHT22;11347;52.030;4.690;2022-12-29T09:42:38;15.50;60.00
22360;DHT22;11347;52.030;4.690;2022-12-29T09:45:16;15.50;60.00
22360;DHT22;11347;52.030;4.690;2022-12-29T09:47:45;15.50;60.00
22360;DHT22;11347;52.030;4.690;2022-12-29T09:53:49;15.50;60.00
22360;DHT22;11347;52.030;4.690;2022-12-29T09:55:52;15.50;60.50
22360;DHT22;11347;52.030;4.690;2022-12-29T10:01:28;15.50;60.00
22360;DHT22;11347;52.030;4.690;2022-12-29T10:03:57;15.50;60.10
22360;DHT22;11347;52.030;4.690;2022-12-29T10:25:41;15.50;60.00
22360;DHT22;11347;52.030;4.690;2022-12-29T10:28:19;15.50;60.00
22360;DHT22;11347;52.030;4.690;2022-12-29T10:30:48;15.50;60.10
22360;DHT22;11347;52.030;4.690;2022-12-29T10:33:35;15.50;60.10
22360;DHT22;11347;52.030;4.690;2022-12-29T10:36:35;15.50;60.10
22360;DHT22;11347;52.030;4.690;2022-12-29T10:41:51;15.50;60.10
22360;DHT22;11347;52.030;4.690;2022-12-29T10:44:22;15.50;60.20
22360;DHT22;11347;52.030;4.690;2022-12-29T10:47:02;15.60;60.20
22360;DHT22;11347;52.030;4.690;2022-12-29T10:49:30;15.60;60.30
22360;DHT22;11347;52.030;4.690;2022-12-29T10:51:59;15.60;60.40
22360;DHT22;11347;52.030;4.690;2022-12-29T10:57:45;15.60;60.50
22360;DHT22;11347;52.030;4.690;2022-12-29T11:08:26;15.70;60.60
22360;DHT22;11347;52.030;4.690;2022-12-29T11:11:02;15.70;60.60
22360;DHT22;11347;52.030;4.690;2022-12-29T11:13:30;15.70;60.50
22360;DHT22;11347;52.030;4.690;2022-12-29T11:15:56;15.70;60.40
22360;DHT22;11347;52.030;4.690;2022-12-29T11:18:24;15.70;60.40
22360;DHT22;11347;52.030;4.690;2022-12-29T11:20:56;15.70;60.30
22360;DHT22;11347;52.030;4.690;2022-12-29T11:23:36;15.80;60.20
22360;DHT22;11347;52.030;4.690;2022-12-29T11:28:38;15.80;60.00
22360;DHT22;11347;52.030;4.690;2022-12-29T11:31:06;15.80;60.00
22360;DHT22;11347;52.030;4.690;2022-12-29T11:33:33;15.80;59.90
22360;DHT22;11347;52.030;4.690;2022-12-29T11:36:04;15.80;59.80
22360;DHT22;11347;52.030;4.690;2022-12-29T11:38:40;15.80;59.80
22360;DHT22;11347;52.030;4.690;2022-12-29T11:41:11;15.80;59.90
22360;DHT22;11347;52.030;4.690;2022-12-29T11:43:40;15.80;59.90
22360;DHT22;11347;52.030;4.690;2022-12-29T11:46:14;15.80;59.80
22360;DHT22;11347;52.030;4.690;2022-12-29T11:48:41;15.80;59.80
22360;DHT22;11347;52.030;4.690;2022-12-29T11:51:08;15.80;59.90
22360;DHT22;11347;52.030;4.690;2022-12-29T11:53:46;15.80;59.80
22360;DHT22;11347;52.030;4.690;2022-12-29T11:56:15;15.80;59.80
22360;DHT22;11347;52.030;4.690;2022-12-29T11:58:41;15.80;59.90
22360;DHT22;11347;52.030;4.690;2022-12-29T12:01:20;15.80;59.90
22360;DHT22;11347;52.030;4.690;2022-12-29T12:04:13;15.80;59.80
22360;DHT22;11347;52.030;4.690;2022-12-29T12:07:11;15.80;59.80
22360;DHT22;11347;52.030;4.690;2022-12-29T12:12:39;15.80;59.70
22360;DHT22;11347;52.030;4.690;2022-12-29T12:15:15;15.80;59.80
22360;DHT22;11347;52.030;4.690;2022-12-29T12:18:09;15.80;59.80
22360;DHT22;11347;52.030;4.690;2022-12-29T12:20:56;15.80;59.80
22360;DHT22;11347;52.030;4.690;2022-12-29T12:23:46;15.80;59.80
22360;DHT22;11347;52.030;4.690;2022-12-29T12:26:20;15.80;59.90
22360;DHT22;11347;52.030;4.690;2022-12-29T12:29:10;15.80;59.90
22360;DHT22;11347;52.030;4.690;2022-12-29T12:31:50;15.80;60.10
22360;DHT22;11347;52.030;4.690;2022-12-29T12:48:54;15.80;59.80
22360;DHT22;11347;52.030;4.690;2022-12-29T12:51:55;15.90;59.90
22360;DHT22;11347;52.030;4.690;2022-12-29T12:54:32;15.90;59.90
22360;DHT22;11347;52.030;4.690;2022-12-29T13:10:36;15.90;59.60
22360;DHT22;11347;52.030;4.690;2022-12-29T13:16:41;15.90;59.50
22360;DHT22;11347;52.030;4.690;2022-12-29T13:19:51;15.90;59.50
22360;DHT22;11347;52.030;4.690;2022-12-29T13:22:36;15.90;59.40
22360;DHT22;11347;52.030;4.690;2022-12-29T13:28:10;15.90;59.50
22360;DHT22;11347;52.030;4.690;2022-12-29T13:30:57;15.90;59.40
22360;DHT22;11347;52.030;4.690;2022-12-29T13:34:05;15.90;59.40
22360;DHT22;11347;52.030;4.690;2022-12-29T13:36:58;15.90;59.40
22360;DHT22;11347;52.030;4.690;2022-12-29T13:39:30;15.90;59.50
22360;DHT22;11347;52.030;4.690;2022-12-29T13:41:58;15.90;60.10
22360;DHT22;11347;52.030;4.690;2022-12-29T13:44:30;15.90;59.50
22360;DHT22;11347;52.030;4.690;2022-12-29T13:47:00;15.90;59.50
22360;DHT22;11347;52.030;4.690;2022-12-29T13:49:29;15.90;59.50
22360;DHT22;11347;52.030;4.690;2022-12-29T13:51:57;15.90;59.40
22360;DHT22;11347;52.030;4.690;2022-12-29T13:54:38;15.90;59.50
22360;DHT22;11347;52.030;4.690;2022-12-29T13:57:20;15.90;59.50
22360;DHT22;11347;52.030;4.690;2022-12-29T14:00:18;15.90;59.50
22360;DHT22;11347;52.030;4.690;2022-12-29T14:05:32;15.90;59.70
22360;DHT22;11347;52.030;4.690;2022-12-29T14:08:03;15.90;60.00
22360;DHT22;11347;52.030;4.690;2022-12-29T14:10:36;15.90;60.10
22360;DHT22;11347;52.030;4.690;2022-12-29T15:27:36;15.80;62.30
22360;DHT22;11347;52.030;4.690;2022-12-29T15:30:04;15.80;62.40
22360;DHT22;11347;52.030;4.690;2022-12-29T15:32:43;15.80;62.50
22360;DHT22;11347;52.030;4.690;2022-12-29T15:35:35;15.80;62.60
22360;DHT22;11347;52.030;4.690;2022-12-29T15:38:13;15.80;62.70
22360;DHT22;11347;52.030;4.690;2022-12-29T15:40:39;15.80;62.60
22360;DHT22;11347;52.030;4.690;2022-12-29T15:43:27;15.80;62.40
22360;DHT22;11347;52.030;4.690;2022-12-29T15:45:55;15.80;62.20
22360;DHT22;11347;52.030;4.690;2022-12-29T15:48:23;15.80;61.90
22360;DHT22;11347;52.030;4.690;2022-12-29T15:50:50;15.80;61.80
22360;DHT22;11347;52.030;4.690;2022-12-29T15:53:26;15.80;61.60
22360;DHT22;11347;52.030;4.690;2022-12-29T15:56:15;15.80;61.40
22360;DHT22;11347;52.030;4.690;2022-12-29T15:58:44;15.80;61.30
22360;DHT22;11347;52.030;4.690;2022-12-29T16:01:39;15.80;61.20
22360;DHT22;11347;52.030;4.690;2022-12-29T16:04:08;15.70;60.90
22360;DHT22;11347;52.030;4.690;2022-12-29T16:06:36;15.70;60.80
22360;DHT22;11347;52.030;4.690;2022-12-29T16:09:17;15.70;60.70
22360;DHT22;11347;52.030;4.690;2022-12-29T16:11:49;15.70;60.60
22360;DHT22;11347;52.030;4.690;2022-12-29T16:14:18;15.70;60.50
22360;DHT22;11347;52.030;4.690;2022-12-29T16:16:45;15.60;60.20
22360;DHT22;11347;52.030;4.690;2022-12-29T16:19:26;15.70;60.20
22360;DHT22;11347;52.030;4.690;2022-12-29T16:21:54;15.70;60.20
22360;DHT22;11347;52.030;4.690;2022-12-29T16:24:30;15.60;60.00
22360;DHT22;11347;52.030;4.690;2022-12-29T16:27:09;15.60;60.00
22360;DHT22;11347;52.030;4.690;2022-12-29T16:29:35;15.60;59.90
22360;DHT22;11347;52.030;4.690;2022-12-29T16:32:02;15.60;59.90
22360;DHT22;11347;52.030;4.690;2022-12-29T16:34:31;15.60;59.60
22360;DHT22;11347;52.030;4.690;2022-12-29T16:41:56;15.50;59.10
22360;DHT22;11347;52.030;4.690;2022-12-29T16:44:28;15.50;59.00
22360;DHT22;11347;52.030;4.690;2022-12-29T16:47:16;15.50;59.00
22360;DHT22;11347;52.030;4.690;2022-12-29T16:49:47;15.50;58.80
22360;DHT22;11347;52.030;4.690;2022-12-29T16:52:25;15.50;58.90
22360;DHT22;11347;52.030;4.690;2022-12-29T16:54:56;15.50;58.80
22360;DHT22;11347;52.030;4.690;2022-12-29T16:57:35;15.40;58.70
22360;DHT22;11347;52.030;4.690;2022-12-29T17:00:16;15.40;58.50
22360;DHT22;11347;52.030;4.690;2022-12-29T17:02:42;15.40;58.40
22360;DHT22;11347;52.030;4.690;2022-12-29T17:05:12;15.40;58.50
22360;DHT22;11347;52.030;4.690;2022-12-29T17:07:39;15.40;58.50
22360;DHT22;11347;52.030;4.690;2022-12-29T17:10:05;15.40;59.10
22360;DHT22;11347;52.030;4.690;2022-12-29T17:12:33;15.40;58.40
22360;DHT22;11347;52.030;4.690;2022-12-29T17:15:07;15.40;58.30
22360;DHT22;11347;52.030;4.690;2022-12-29T17:17:47;15.40;58.30
22360;DHT22;11347;52.030;4.690;2022-12-29T17:20:19;15.40;58.10
22360;DHT22;11347;52.030;4.690;2022-12-29T17:22:46;15.40;58.10
22360;DHT22;11347;52.030;4.690;2022-12-29T17:25:17;15.30;57.80
22360;DHT22;11347;52.030;4.690;2022-12-29T17:27:46;15.30;57.80
22360;DHT22;11347;52.030;4.690;2022-12-29T17:30:15;15.30;57.70
22360;DHT22;11347;52.030;4.690;2022-12-29T17:32:43;15.30;57.50
22360;DHT22;11347;52.030;4.690;2022-12-29T17:35:15;15.30;57.40
22360;DHT22;11347;52.030;4.690;2022-12-29T17:37:40;15.30;57.10
22360;DHT22;11347;52.030;4.690;2022-12-29T17:40:17;15.20;56.90
22360;DHT22;11347;52.030;4.690;2022-12-29T17:42:48;15.30;57.20
22360;DHT22;11347;52.030;4.690;2022-12-29T17:45:23;15.30;57.40
22360;DHT22;11347;52.030;4.690;2022-12-29T17:47:49;15.30;57.60
22360;DHT22;11347;52.030;4.690;2022-12-29T17:50:17;15.30;57.70
22360;DHT22;11347;52.030;4.690;2022-12-29T17:52:52;15.30;57.90
22360;DHT22;11347;52.030;4.690;2022-12-29T17:55:20;15.30;58.20
22360;DHT22;11347;52.030;4.690;2022-12-29T17:57:46;15.30;58.50
22360;DHT22;11347;52.030;4.690;2022-12-29T18:00:23;15.30;58.70
22360;DHT22;11347;52.030;4.690;2022-12-29T18:02:52;15.30;58.80
22360;DHT22;11347;52.030;4.690;2022-12-29T18:05:21;15.30;59.10
22360;DHT22;11347;52.030;4.690;2022-12-29T18:07:48;15.40;59.30
22360;DHT22;11347;52.030;4.690;2022-12-29T18:10:14;15.40;59.40
22360;DHT22;11347;52.030;4.690;2022-12-29T18:12:42;15.40;59.50
22360;DHT22;11347;52.030;4.690;2022-12-29T18:15:22;15.40;59.70
22360;DHT22;11347;52.030;4.690;2022-12-29T18:17:48;15.30;59.60
22360;DHT22;11347;52.030;4.690;2022-12-29T18:20:15;15.40;59.80
22360;DHT22;11347;52.030;4.690;2022-12-29T18:22:41;15.40;60.00
22360;DHT22;11347;52.030;4.690;2022-12-29T18:25:31;15.40;60.00
22360;DHT22;11347;52.030;4.690;2022-12-29T18:28:00;15.40;60.00
22360;DHT22;11347;52.030;4.690;2022-12-29T18:30:26;15.40;60.10
22360;DHT22;11347;52.030;4.690;2022-12-29T18:32:51;15.40;60.10
22360;DHT22;11347;52.030;4.690;2022-12-29T18:35:40;15.40;60.20
22360;DHT22;11347;52.030;4.690;2022-12-29T18:38:06;15.40;60.20
22360;DHT22;11347;52.030;4.690;2022-12-29T18:40:36;15.40;60.20
22360;DHT22;11347;52.030;4.690;2022-12-29T18:43:02;15.40;60.20
22360;DHT22;11347;52.030;4.690;2022-12-29T18:45:30;15.40;60.30
22360;DHT22;11347;52.030;4.690;2022-12-29T18:47:57;15.30;60.30
22360;DHT22;11347;52.030;4.690;2022-12-29T18:50:22;15.40;60.40
22360;DHT22;11347;52.030;4.690;2022-12-29T18:52:48;15.40;60.40
22360;DHT22;11347;52.030;4.690;2022-12-29T18:55:20;15.40;60.40
22360;DHT22;11347;52.030;4.690;2022-12-29T18:57:47;15.40;60.40
22360;DHT22;11347;52.030;4.690;2022-12-29T19:00:14;15.30;60.40
22360;DHT22;11347;52.030;4.690;2022-12-29T19:02:44;15.30;60.50
22360;DHT22;11347;52.030;4.690;2022-12-29T19:05:37;15.30;60.40
22360;DHT22;11347;52.030;4.690;2022-12-29T19:08:03;15.30;60.40
22360;DHT22;11347;52.030;4.690;2022-12-29T19:10:29;15.30;60.30